sensor_id;sensor_type;location;lat;lon;timestamp;P1;durP1;ratioP1;P2;durP2;ratioP2
13799;SDS011;6971;50.028;9.258;2022-12-18T00:00:48;25.67;;;14.90;;
13799;SDS011;6971;50.028;9.258;2022-12-18T00:05:50;29.53;;;16.10;;
13799;SDS011;6971;50.028;9.258;2022-12-18T00:10:51;24.93;;;15.03;;
13799;SDS011;6971;50.028;9.258;2022-12-18T00:15:52;26.97;;;15.33;;
13799;SDS011;6971;50.028;9.258;2022-12-18T00:20:53;24.20;;;16.43;;
13799;SDS011;6971;50.028;9.258;2022-12-18T00:25:58;31.77;;;15.37;;
13799;SDS011;6971;50.028;9.258;2022-12-18T00:31:07;27.97;;;15.97;;
13799;SDS011;6971;50.028;9.258;2022-12-18T00:36:11;28.97;;;16.20;;
13799;SDS011;6971;50.028;9.258;2022-12-18T00:41:16;25.53;;;15.20;;
13799;SDS011;6971;50.028;9.258;2022-12-18T00:46:38;31.43;;;17.03;;
13799;SDS011;6971;50.028;9.258;2022-12-18T00:51:39;27.50;;;15.80;;
13799;SDS011;6971;50.028;9.258;2022-12-18T00:56:40;32.03;;;17.00;;
13799;SDS011;6971;50.028;9.258;2022-12-18T01:01:41;25.93;;;15.93;;
13799;SDS011;6971;50.028;9.258;2022-12-18T01:06:43;28.97;;;16.27;;
13799;SDS011;6971;50.028;9.258;2022-12-18T01:11:44;27.23;;;16.57;;
13799;SDS011;6971;50.028;9.258;2022-12-18T01:16:45;31.47;;;16.57;;
13799;SDS011;6971;50.028;9.258;2022-12-18T01:21:45;30.47;;;16.57;;
13799;SDS011;6971;50.028;9.258;2022-12-18T01:26:46;28.03;;;16.57;;
13799;SDS011;6971;50.028;9.258;2022-12-18T01:31:47;31.17;;;16.17;;
13799;SDS011;6971;50.028;9.258;2022-12-18T01:36:48;33.50;;;17.40;;
13799;SDS011;6971;50.028;9.258;2022-12-18T01:41:49;34.50;;;19.67;;
13799;SDS011;6971;50.028;9.258;2022-12-18T01:47:15;29.93;;;18.73;;
13799;SDS011;6971;50.028;9.258;2022-12-18T01:52:23;36.00;;;19.40;;
13799;SDS011;6971;50.028;9.258;2022-12-18T01:57:26;28.67;;;18.07;;
13799;SDS011;6971;50.028;9.258;2022-12-18T02:02:29;30.63;;;17.57;;
13799;SDS011;6971;50.028;9.258;2022-12-18T02:18:17;36.63;;;17.67;;
13799;SDS011;6971;50.028;9.258;2022-12-18T02:23:56;31.30;;;16.63;;
13799;SDS011;6971;50.028;9.258;2022-12-18T02:29:08;35.63;;;18.07;;
13799;SDS011;6971;50.028;9.258;2022-12-18T02:34:12;37.93;;;19.97;;
13799;SDS011;6971;50.028;9.258;2022-12-18T02:39:14;34.43;;;19.87;;
13799;SDS011;6971;50.028;9.258;2022-12-18T02:44:16;36.37;;;20.00;;
13799;SDS011;6971;50.028;9.258;2022-12-18T02:54:45;33.77;;;19.00;;
13799;SDS011;6971;50.028;9.258;2022-12-18T03:00:02;33.53;;;18.13;;
13799;SDS011;6971;50.028;9.258;2022-12-18T03:05:24;30.07;;;18.57;;
13799;SDS011;6971;50.028;9.258;2022-12-18T03:10:42;32.87;;;17.73;;
13799;SDS011;6971;50.028;9.258;2022-12-18T03:15:50;33.27;;;19.23;;
13799;SDS011;6971;50.028;9.258;2022-12-18T03:20:57;33.43;;;18.53;;
13799;SDS011;6971;50.028;9.258;2022-12-18T03:26:04;40.17;;;18.93;;
13799;SDS011;6971;50.028;9.258;2022-12-18T03:31:09;30.93;;;16.57;;
13799;SDS011;6971;50.028;9.258;2022-12-18T03:36:14;38.03;;;19.23;;
13799;SDS011;6971;50.028;9.258;2022-12-18T03:41:37;37.70;;;19.63;;
13799;SDS011;6971;50.028;9.258;2022-12-18T03:52:19;36.77;;;18.93;;
13799;SDS011;6971;50.028;9.258;2022-12-18T03:57:27;33.57;;;19.53;;
13799;SDS011;6971;50.028;9.258;2022-12-18T04:02:30;36.20;;;19.50;;
13799;SDS011;6971;50.028;9.258;2022-12-18T04:07:32;40.07;;;19.63;;
13799;SDS011;6971;50.028;9.258;2022-12-18T04:12:34;41.33;;;20.47;;
13799;SDS011;6971;50.028;9.258;2022-12-18T04:17:38;38.57;;;21.13;;
13799;SDS011;6971;50.028;9.258;2022-12-18T04:22:42;40.53;;;22.20;;
13799;SDS011;6971;50.028;9.258;2022-12-18T04:27:43;36.30;;;19.10;;
13799;SDS011;6971;50.028;9.258;2022-12-18T04:32:44;39.23;;;22.03;;
13799;SDS011;6971;50.028;9.258;2022-12-18T04:37:44;38.47;;;21.27;;
13799;SDS011;6971;50.028;9.258;2022-12-18T04:42:45;43.87;;;22.87;;
13799;SDS011;6971;50.028;9.258;2022-12-18T04:47:46;40.37;;;22.60;;
13799;SDS011;6971;50.028;9.258;2022-12-18T04:52:47;45.70;;;23.77;;
13799;SDS011;6971;50.028;9.258;2022-12-18T04:57:48;35.93;;;22.33;;
13799;SDS011;6971;50.028;9.258;2022-12-18T05:02:49;44.73;;;23.60;;
13799;SDS011;6971;50.028;9.258;2022-12-18T05:07:49;41.77;;;21.73;;
13799;SDS011;6971;50.028;9.258;2022-12-18T05:12:50;41.23;;;23.00;;
13799;SDS011;6971;50.028;9.258;2022-12-18T05:18:13;45.23;;;23.93;;
13799;SDS011;6971;50.028;9.258;2022-12-18T05:23:14;43.17;;;22.63;;
13799;SDS011;6971;50.028;9.258;2022-12-18T05:28:16;38.43;;;22.53;;
13799;SDS011;6971;50.028;9.258;2022-12-18T05:33:17;47.17;;;24.40;;
13799;SDS011;6971;50.028;9.258;2022-12-18T05:38:20;41.50;;;23.70;;
13799;SDS011;6971;50.028;9.258;2022-12-18T05:43:22;43.63;;;21.63;;
13799;SDS011;6971;50.028;9.258;2022-12-18T05:48:24;46.93;;;24.80;;
13799;SDS011;6971;50.028;9.258;2022-12-18T05:53:25;41.90;;;22.77;;
13799;SDS011;6971;50.028;9.258;2022-12-18T05:58:25;40.40;;;21.87;;
13799;SDS011;6971;50.028;9.258;2022-12-18T06:03:26;36.17;;;21.53;;
13799;SDS011;6971;50.028;9.258;2022-12-18T06:08:27;41.57;;;21.33;;
13799;SDS011;6971;50.028;9.258;2022-12-18T06:13:28;43.97;;;23.10;;
13799;SDS011;6971;50.028;9.258;2022-12-18T06:18:29;38.73;;;21.13;;
13799;SDS011;6971;50.028;9.258;2022-12-18T06:23:32;41.57;;;22.90;;
13799;SDS011;6971;50.028;9.258;2022-12-18T06:28:33;35.83;;;19.93;;
13799;SDS011;6971;50.028;9.258;2022-12-18T06:33:34;37.80;;;21.57;;
13799;SDS011;6971;50.028;9.258;2022-12-18T06:38:38;36.93;;;20.80;;
13799;SDS011;6971;50.028;9.258;2022-12-18T06:43:40;36.33;;;20.73;;
13799;SDS011;6971;50.028;9.258;2022-12-18T06:48:41;35.67;;;21.10;;
13799;SDS011;6971;50.028;9.258;2022-12-18T06:53:42;38.90;;;20.93;;
13799;SDS011;6971;50.028;9.258;2022-12-18T06:58:43;40.10;;;22.77;;
13799;SDS011;6971;50.028;9.258;2022-12-18T07:03:44;32.70;;;19.53;;
13799;SDS011;6971;50.028;9.258;2022-12-18T07:08:45;33.73;;;18.73;;
13799;SDS011;6971;50.028;9.258;2022-12-18T07:13:48;35.33;;;19.33;;
13799;SDS011;6971;50.028;9.258;2022-12-18T07:18:49;30.40;;;16.90;;
13799;SDS011;6971;50.028;9.258;2022-12-18T07:23:50;28.83;;;18.27;;
13799;SDS011;6971;50.028;9.258;2022-12-18T07:28:54;37.27;;;20.10;;
13799;SDS011;6971;50.028;9.258;2022-12-18T07:33:56;33.33;;;18.03;;
13799;SDS011;6971;50.028;9.258;2022-12-18T07:38:57;38.50;;;22.03;;
13799;SDS011;6971;50.028;9.258;2022-12-18T07:43:58;36.80;;;19.90;;
13799;SDS011;6971;50.028;9.258;2022-12-18T07:48:59;27.87;;;15.97;;
13799;SDS011;6971;50.028;9.258;2022-12-18T07:54:00;33.13;;;19.47;;
13799;SDS011;6971;50.028;9.258;2022-12-18T07:59:00;29.23;;;19.47;;
13799;SDS011;6971;50.028;9.258;2022-12-18T08:04:01;31.33;;;17.80;;
13799;SDS011;6971;50.028;9.258;2022-12-18T08:09:09;33.13;;;19.43;;
13799;SDS011;6971;50.028;9.258;2022-12-18T08:14:10;24.37;;;11.80;;
13799;SDS011;6971;50.028;9.258;2022-12-18T08:19:11;33.97;;;19.63;;
13799;SDS011;6971;50.028;9.258;2022-12-18T08:24:12;31.20;;;18.93;;
13799;SDS011;6971;50.028;9.258;2022-12-18T08:29:12;26.47;;;14.53;;
13799;SDS011;6971;50.028;9.258;2022-12-18T08:34:27;35.47;;;19.87;;
13799;SDS011;6971;50.028;9.258;2022-12-18T08:39:27;29.37;;;16.73;;
13799;SDS011;6971;50.028;9.258;2022-12-18T08:44:28;32.20;;;18.67;;
13799;SDS011;6971;50.028;9.258;2022-12-18T08:49:38;28.63;;;17.33;;
13799;SDS011;6971;50.028;9.258;2022-12-18T08:54:39;26.60;;;15.20;;
13799;SDS011;6971;50.028;9.258;2022-12-18T08:59:40;36.67;;;19.27;;
13799;SDS011;6971;50.028;9.258;2022-12-18T09:04:41;31.17;;;18.33;;
13799;SDS011;6971;50.028;9.258;2022-12-18T09:09:41;28.33;;;16.10;;
13799;SDS011;6971;50.028;9.258;2022-12-18T09:14:42;31.23;;;17.20;;
13799;SDS011;6971;50.028;9.258;2022-12-18T09:19:43;28.73;;;17.73;;
13799;SDS011;6971;50.028;9.258;2022-12-18T09:24:44;30.63;;;18.70;;
13799;SDS011;6971;50.028;9.258;2022-12-18T09:29:45;30.17;;;18.80;;
13799;SDS011;6971;50.028;9.258;2022-12-18T09:34:45;40.33;;;22.97;;
13799;SDS011;6971;50.028;9.258;2022-12-18T09:39:46;39.23;;;21.60;;
13799;SDS011;6971;50.028;9.258;2022-12-18T09:44:51;42.20;;;23.70;;
13799;SDS011;6971;50.028;9.258;2022-12-18T09:49:58;30.10;;;18.17;;
13799;SDS011;6971;50.028;9.258;2022-12-18T10:00:17;48.30;;;25.40;;
13799;SDS011;6971;50.028;9.258;2022-12-18T10:10:51;35.57;;;20.57;;
13799;SDS011;6971;50.028;9.258;2022-12-18T10:26:40;35.90;;;22.60;;
13799;SDS011;6971;50.028;9.258;2022-12-18T10:31:42;37.40;;;21.50;;
13799;SDS011;6971;50.028;9.258;2022-12-18T10:36:43;36.47;;;20.77;;
13799;SDS011;6971;50.028;9.258;2022-12-18T10:41:44;37.87;;;20.47;;
13799;SDS011;6971;50.028;9.258;2022-12-18T10:46:46;39.47;;;21.57;;
13799;SDS011;6971;50.028;9.258;2022-12-18T10:51:49;44.90;;;23.50;;
13799;SDS011;6971;50.028;9.258;2022-12-18T10:56:51;37.30;;;21.43;;
13799;SDS011;6971;50.028;9.258;2022-12-18T11:02:34;37.60;;;19.90;;
13799;SDS011;6971;50.028;9.258;2022-12-18T11:07:47;53.07;;;26.53;;
13799;SDS011;6971;50.028;9.258;2022-12-18T11:12:50;57.77;;;30.07;;
13799;SDS011;6971;50.028;9.258;2022-12-18T11:17:52;46.10;;;23.83;;
13799;SDS011;6971;50.028;9.258;2022-12-18T11:22:57;47.63;;;24.57;;
13799;SDS011;6971;50.028;9.258;2022-12-18T11:28:01;51.93;;;26.77;;
13799;SDS011;6971;50.028;9.258;2022-12-18T11:49:11;39.47;;;23.07;;
13799;SDS011;6971;50.028;9.258;2022-12-18T11:54:17;48.27;;;27.03;;
13799;SDS011;6971;50.028;9.258;2022-12-18T12:09:36;59.77;;;29.00;;
13799;SDS011;6971;50.028;9.258;2022-12-18T12:25:24;46.07;;;24.23;;
13799;SDS011;6971;50.028;9.258;2022-12-18T12:30:31;55.73;;;26.47;;
13799;SDS011;6971;50.028;9.258;2022-12-18T12:40:53;43.33;;;22.87;;
13799;SDS011;6971;50.028;9.258;2022-12-18T12:46:00;55.43;;;26.77;;
13799;SDS011;6971;50.028;9.258;2022-12-18T12:51:02;92.07;;;42.07;;
13799;SDS011;6971;50.028;9.258;2022-12-18T12:56:10;100.87;;;42.90;;
13799;SDS011;6971;50.028;9.258;2022-12-18T13:11:46;61.40;;;32.60;;
13799;SDS011;6971;50.028;9.258;2022-12-18T13:17:16;51.53;;;26.00;;
13799;SDS011;6971;50.028;9.258;2022-12-18T13:22:38;44.93;;;21.83;;
13799;SDS011;6971;50.028;9.258;2022-12-18T13:28:02;48.70;;;24.47;;
13799;SDS011;6971;50.028;9.258;2022-12-18T13:43:45;43.17;;;22.40;;
13799;SDS011;6971;50.028;9.258;2022-12-18T13:48:55;41.23;;;22.83;;
13799;SDS011;6971;50.028;9.258;2022-12-18T13:54:06;40.60;;;19.97;;
13799;SDS011;6971;50.028;9.258;2022-12-18T13:59:20;63.10;;;36.03;;
13799;SDS011;6971;50.028;9.258;2022-12-18T14:09:34;60.40;;;31.50;;
13799;SDS011;6971;50.028;9.258;2022-12-18T14:14:37;64.83;;;32.30;;
13799;SDS011;6971;50.028;9.258;2022-12-18T14:19:43;66.50;;;35.60;;
13799;SDS011;6971;50.028;9.258;2022-12-18T14:25:04;68.27;;;37.47;;
13799;SDS011;6971;50.028;9.258;2022-12-18T14:30:38;41.83;;;23.30;;
13799;SDS011;6971;50.028;9.258;2022-12-18T14:35:54;45.80;;;24.53;;
13799;SDS011;6971;50.028;9.258;2022-12-18T14:40:59;51.80;;;24.10;;
13799;SDS011;6971;50.028;9.258;2022-12-18T14:46:05;69.77;;;37.17;;
13799;SDS011;6971;50.028;9.258;2022-12-18T14:51:28;55.37;;;30.77;;
13799;SDS011;6971;50.028;9.258;2022-12-18T14:56:34;47.73;;;26.13;;
13799;SDS011;6971;50.028;9.258;2022-12-18T15:01:37;53.63;;;26.40;;
13799;SDS011;6971;50.028;9.258;2022-12-18T15:07:07;42.40;;;22.87;;
13799;SDS011;6971;50.028;9.258;2022-12-18T15:17:34;48.33;;;25.67;;
13799;SDS011;6971;50.028;9.258;2022-12-18T15:22:35;45.87;;;24.17;;
13799;SDS011;6971;50.028;9.258;2022-12-18T15:27:37;48.60;;;24.77;;
13799;SDS011;6971;50.028;9.258;2022-12-18T15:32:39;41.47;;;24.37;;
13799;SDS011;6971;50.028;9.258;2022-12-18T15:37:40;47.67;;;24.73;;
13799;SDS011;6971;50.028;9.258;2022-12-18T15:42:42;40.87;;;22.17;;
13799;SDS011;6971;50.028;9.258;2022-12-18T15:48:04;42.20;;;21.23;;
13799;SDS011;6971;50.028;9.258;2022-12-18T15:53:19;42.37;;;21.90;;
13799;SDS011;6971;50.028;9.258;2022-12-18T15:58:20;39.60;;;21.93;;
13799;SDS011;6971;50.028;9.258;2022-12-18T16:03:21;49.20;;;23.13;;
13799;SDS011;6971;50.028;9.258;2022-12-18T16:08:22;43.80;;;21.90;;
13799;SDS011;6971;50.028;9.258;2022-12-18T16:13:23;42.03;;;21.70;;
13799;SDS011;6971;50.028;9.258;2022-12-18T16:18:24;43.17;;;22.20;;
13799;SDS011;6971;50.028;9.258;2022-12-18T16:23:32;41.30;;;20.73;;
13799;SDS011;6971;50.028;9.258;2022-12-18T16:28:34;42.10;;;22.67;;
13799;SDS011;6971;50.028;9.258;2022-12-18T16:33:35;41.43;;;20.70;;
13799;SDS011;6971;50.028;9.258;2022-12-18T16:38:35;42.70;;;21.90;;
13799;SDS011;6971;50.028;9.258;2022-12-18T16:43:36;37.57;;;21.33;;
13799;SDS011;6971;50.028;9.258;2022-12-18T16:48:38;45.73;;;23.10;;
13799;SDS011;6971;50.028;9.258;2022-12-18T16:53:38;42.10;;;22.43;;
13799;SDS011;6971;50.028;9.258;2022-12-18T16:58:39;39.43;;;21.10;;
13799;SDS011;6971;50.028;9.258;2022-12-18T17:03:40;40.13;;;21.47;;
13799;SDS011;6971;50.028;9.258;2022-12-18T17:08:41;44.27;;;23.33;;
13799;SDS011;6971;50.028;9.258;2022-12-18T17:13:42;35.23;;;17.63;;
13799;SDS011;6971;50.028;9.258;2022-12-18T17:18:43;38.80;;;21.17;;
13799;SDS011;6971;50.028;9.258;2022-12-18T17:23:44;37.87;;;20.53;;
13799;SDS011;6971;50.028;9.258;2022-12-18T17:28:45;43.60;;;23.57;;
13799;SDS011;6971;50.028;9.258;2022-12-18T17:33:46;41.13;;;22.07;;
13799;SDS011;6971;50.028;9.258;2022-12-18T17:38:57;43.67;;;22.13;;
13799;SDS011;6971;50.028;9.258;2022-12-18T17:44:01;46.67;;;23.83;;
13799;SDS011;6971;50.028;9.258;2022-12-18T17:49:04;44.30;;;22.50;;
13799;SDS011;6971;50.028;9.258;2022-12-18T17:54:07;51.53;;;25.57;;
13799;SDS011;6971;50.028;9.258;2022-12-18T17:59:08;45.93;;;23.37;;
13799;SDS011;6971;50.028;9.258;2022-12-18T18:04:09;48.23;;;25.40;;
13799;SDS011;6971;50.028;9.258;2022-12-18T18:09:11;41.80;;;24.00;;
13799;SDS011;6971;50.028;9.258;2022-12-18T18:14:14;49.90;;;25.40;;
13799;SDS011;6971;50.028;9.258;2022-12-18T18:19:18;53.80;;;28.83;;
13799;SDS011;6971;50.028;9.258;2022-12-18T18:24:21;50.67;;;25.03;;
13799;SDS011;6971;50.028;9.258;2022-12-18T18:29:24;46.40;;;23.67;;
13799;SDS011;6971;50.028;9.258;2022-12-18T18:34:26;53.60;;;27.47;;
13799;SDS011;6971;50.028;9.258;2022-12-18T18:39:28;49.20;;;26.70;;
13799;SDS011;6971;50.028;9.258;2022-12-18T18:44:29;50.27;;;25.17;;
13799;SDS011;6971;50.028;9.258;2022-12-18T18:49:34;42.77;;;23.57;;
13799;SDS011;6971;50.028;9.258;2022-12-18T18:54:34;51.97;;;26.23;;
13799;SDS011;6971;50.028;9.258;2022-12-18T18:59:35;49.90;;;25.87;;
13799;SDS011;6971;50.028;9.258;2022-12-18T19:04:36;49.87;;;27.17;;
13799;SDS011;6971;50.028;9.258;2022-12-18T19:09:38;47.03;;;24.83;;
13799;SDS011;6971;50.028;9.258;2022-12-18T19:14:39;42.33;;;23.33;;
13799;SDS011;6971;50.028;9.258;2022-12-18T19:19:40;49.47;;;26.30;;
13799;SDS011;6971;50.028;9.258;2022-12-18T19:24:42;47.53;;;26.60;;
13799;SDS011;6971;50.028;9.258;2022-12-18T19:29:43;54.50;;;28.57;;
13799;SDS011;6971;50.028;9.258;2022-12-18T19:34:44;42.63;;;23.33;;
13799;SDS011;6971;50.028;9.258;2022-12-18T19:39:45;47.43;;;25.90;;
13799;SDS011;6971;50.028;9.258;2022-12-18T19:44:47;42.80;;;24.00;;
13799;SDS011;6971;50.028;9.258;2022-12-18T19:49:47;47.23;;;23.90;;
13799;SDS011;6971;50.028;9.258;2022-12-18T19:54:48;50.87;;;26.43;;
13799;SDS011;6971;50.028;9.258;2022-12-18T19:59:49;46.67;;;24.07;;
13799;SDS011;6971;50.028;9.258;2022-12-18T20:04:50;47.40;;;26.87;;
13799;SDS011;6971;50.028;9.258;2022-12-18T20:09:53;49.00;;;24.23;;
13799;SDS011;6971;50.028;9.258;2022-12-18T20:14:54;43.63;;;24.50;;
13799;SDS011;6971;50.028;9.258;2022-12-18T20:19:56;42.60;;;23.63;;
13799;SDS011;6971;50.028;9.258;2022-12-18T20:24:57;47.40;;;27.83;;
13799;SDS011;6971;50.028;9.258;2022-12-18T20:30:07;49.63;;;29.83;;
13799;SDS011;6971;50.028;9.258;2022-12-18T20:35:08;41.87;;;23.70;;
13799;SDS011;6971;50.028;9.258;2022-12-18T20:40:10;45.10;;;23.83;;
13799;SDS011;6971;50.028;9.258;2022-12-18T20:45:11;42.30;;;24.30;;
13799;SDS011;6971;50.028;9.258;2022-12-18T20:50:12;46.90;;;25.87;;
13799;SDS011;6971;50.028;9.258;2022-12-18T20:55:13;44.27;;;24.43;;
13799;SDS011;6971;50.028;9.258;2022-12-18T21:00:15;47.60;;;26.60;;
13799;SDS011;6971;50.028;9.258;2022-12-18T21:05:19;48.43;;;25.30;;
13799;SDS011;6971;50.028;9.258;2022-12-18T21:10:20;43.20;;;23.97;;
13799;SDS011;6971;50.028;9.258;2022-12-18T21:15:21;41.03;;;22.50;;
13799;SDS011;6971;50.028;9.258;2022-12-18T21:20:22;43.23;;;26.00;;
13799;SDS011;6971;50.028;9.258;2022-12-18T21:25:23;42.60;;;24.50;;
13799;SDS011;6971;50.028;9.258;2022-12-18T21:30:24;48.20;;;26.63;;
13799;SDS011;6971;50.028;9.258;2022-12-18T21:35:25;48.20;;;27.23;;
13799;SDS011;6971;50.028;9.258;2022-12-18T21:40:26;57.07;;;30.13;;
13799;SDS011;6971;50.028;9.258;2022-12-18T21:45:27;55.30;;;29.87;;
13799;SDS011;6971;50.028;9.258;2022-12-18T21:50:28;44.17;;;25.17;;
13799;SDS011;6971;50.028;9.258;2022-12-18T21:55:29;44.43;;;25.03;;
13799;SDS011;6971;50.028;9.258;2022-12-18T22:00:29;44.67;;;25.07;;
13799;SDS011;6971;50.028;9.258;2022-12-18T22:05:30;46.90;;;24.87;;
13799;SDS011;6971;50.028;9.258;2022-12-18T22:10:31;27.73;;;15.80;;
13799;SDS011;6971;50.028;9.258;2022-12-18T22:15:33;46.03;;;25.10;;
13799;SDS011;6971;50.028;9.258;2022-12-18T22:20:34;41.40;;;24.63;;
13799;SDS011;6971;50.028;9.258;2022-12-18T22:25:35;41.57;;;24.50;;
13799;SDS011;6971;50.028;9.258;2022-12-18T22:30:37;46.37;;;23.87;;
13799;SDS011;6971;50.028;9.258;2022-12-18T22:35:38;41.07;;;21.30;;
13799;SDS011;6971;50.028;9.258;2022-12-18T22:40:39;41.93;;;24.37;;
13799;SDS011;6971;50.028;9.258;2022-12-18T22:45:40;41.03;;;23.83;;
13799;SDS011;6971;50.028;9.258;2022-12-18T22:50:41;41.37;;;24.07;;
13799;SDS011;6971;50.028;9.258;2022-12-18T22:55:42;45.60;;;24.47;;
13799;SDS011;6971;50.028;9.258;2022-12-18T23:00:43;47.03;;;23.87;;
13799;SDS011;6971;50.028;9.258;2022-12-18T23:05:44;46.20;;;24.60;;
13799;SDS011;6971;50.028;9.258;2022-12-18T23:10:45;41.20;;;22.47;;
13799;SDS011;6971;50.028;9.258;2022-12-18T23:15:45;45.67;;;24.20;;
13799;SDS011;6971;50.028;9.258;2022-12-18T23:20:47;40.67;;;22.33;;
13799;SDS011;6971;50.028;9.258;2022-12-18T23:25:48;41.60;;;21.83;;
13799;SDS011;6971;50.028;9.258;2022-12-18T23:30:49;37.43;;;21.20;;
13799;SDS011;6971;50.028;9.258;2022-12-18T23:35:50;39.93;;;22.97;;
13799;SDS011;6971;50.028;9.258;2022-12-18T23:40:50;38.77;;;22.23;;
13799;SDS011;6971;50.028;9.258;2022-12-18T23:45:52;44.80;;;24.27;;
13799;SDS011;6971;50.028;9.258;2022-12-18T23:50:53;55.27;;;30.93;;
13799;SDS011;6971;50.028;9.258;2022-12-18T23:55:54;48.33;;;27.10;;
